Startpagina
METAR-TAF:

METAR-TAF

Vliegvelden :

Havana, Cuba

José Martí International Airport

breedte: 22-59N, lengte: 082-24W, hoogte: 59 m

Actueel weer

Dit bericht is 1 uur en het 9 minuten geleden gemaakt, om 12:55 UTC
Wind 1 kt uit variabele richting
Temperatuur 17°C
Vochtigheid 100%
Druk 1015 hPa
Zicht: 9000 m
Verspreide wolken op 3000 ft

METAR: MUHA 191255Z VRB01KT 9000 SCT030 17/17 Q1015

Tijdstip: 09:04 (14:04 UTC)

Verwachting

Dit bericht is 3 uur en het 4 minuten geleden gemaakt, om 11:00 UTC
Verwachting geldig van 19 om 12 UTC tot 20 om 12 UTC
Wind 3 kt uit variabele richting
Zicht: 9000 m
Weinig wolken op 3000 ft
Wijzigt naar
van 19 om 13 UTC tot 19 om 15 UTC
Wind 10 kt uit het noordnoordoosten
Verspreide wolken op 2500 ft
Tijdelijke
van 20 om 08 UTC tot 20 om 11 UTC
Zicht: 5000 m
Gedeeltelijk bedekt door mist

TAF: MUHA 191100Z 1912/2012 VRB03KT 9000 FEW030 BECMG 1913/1915 02010KT SCT025 TEMPO 2008/2011 5000 PRFG

Waarnemingen en weersverwachtingen van meer dan 4000 vliegvelden (METAR en TAF).

De beschikbare stations zijn de gele en rode punten op de kaart.

Ga met uw muis naar het station om de naam te zien.

Klik dan om waarnemingen en weersverwachtingen te zien.

kaart wijzigen: klik op de groene knoppen met een zwart kruis om in te zoomen, op de groene knop met een streepje om uit te zoomen of op de groene pijlen voor aangrenzende kaarten.


METAR-TAF: